sensor_id;sensor_type;location;lat;lon;timestamp;temperature;humidity
26336;DHT22;14047;50.936;4.654;2023-04-23T00:00:41;10.80;99.90
26336;DHT22;14047;50.936;4.654;2023-04-23T00:03:08;10.70;99.90
26336;DHT22;14047;50.936;4.654;2023-04-23T00:05:38;10.70;99.90
26336;DHT22;14047;50.936;4.654;2023-04-23T00:08:04;10.70;99.90
26336;DHT22;14047;50.936;4.654;2023-04-23T00:10:31;10.70;99.90
26336;DHT22;14047;50.936;4.654;2023-04-23T00:12:57;10.70;99.90
26336;DHT22;14047;50.936;4.654;2023-04-23T00:15:23;10.60;99.90
26336;DHT22;14047;50.936;4.654;2023-04-23T00:17:49;10.60;99.90
26336;DHT22;14047;50.936;4.654;2023-04-23T00:20:15;10.60;99.90
26336;DHT22;14047;50.936;4.654;2023-04-23T00:22:42;10.50;99.90
26336;DHT22;14047;50.936;4.654;2023-04-23T00:25:09;10.70;99.90
26336;DHT22;14047;50.936;4.654;2023-04-23T00:27:35;10.70;99.90
26336;DHT22;14047;50.936;4.654;2023-04-23T00:30:05;10.70;99.90
26336;DHT22;14047;50.936;4.654;2023-04-23T00:32:32;10.80;99.90
26336;DHT22;14047;50.936;4.654;2023-04-23T00:34:58;10.80;99.90
26336;DHT22;14047;50.936;4.654;2023-04-23T00:37:24;10.90;99.90
26336;DHT22;14047;50.936;4.654;2023-04-23T00:39:50;10.90;99.90
26336;DHT22;14047;50.936;4.654;2023-04-23T00:42:16;11.00;99.90
26336;DHT22;14047;50.936;4.654;2023-04-23T00:44:42;11.10;99.90
26336;DHT22;14047;50.936;4.654;2023-04-23T00:47:09;11.10;99.90
26336;DHT22;14047;50.936;4.654;2023-04-23T00:49:36;11.20;99.90
26336;DHT22;14047;50.936;4.654;2023-04-23T00:52:04;11.00;99.90
26336;DHT22;14047;50.936;4.654;2023-04-23T00:54:30;11.10;99.90
26336;DHT22;14047;50.936;4.654;2023-04-23T00:56:57;11.30;99.90
26336;DHT22;14047;50.936;4.654;2023-04-23T00:59:24;11.40;99.90
26336;DHT22;14047;50.936;4.654;2023-04-23T01:01:51;11.40;99.90
26336;DHT22;14047;50.936;4.654;2023-04-23T01:04:18;11.30;99.90
26336;DHT22;14047;50.936;4.654;2023-04-23T01:06:45;11.40;99.90
26336;DHT22;14047;50.936;4.654;2023-04-23T01:09:13;11.30;99.90
26336;DHT22;14047;50.936;4.654;2023-04-23T01:11:41;11.40;99.90
26336;DHT22;14047;50.936;4.654;2023-04-23T01:14:09;11.60;99.90
26336;DHT22;14047;50.936;4.654;2023-04-23T01:16:36;11.70;99.90
26336;DHT22;14047;50.936;4.654;2023-04-23T01:19:07;11.80;99.90
26336;DHT22;14047;50.936;4.654;2023-04-23T01:21:34;11.90;99.90
26336;DHT22;14047;50.936;4.654;2023-04-23T01:24:04;11.80;99.90
26336;DHT22;14047;50.936;4.654;2023-04-23T01:26:31;11.70;99.90
26336;DHT22;14047;50.936;4.654;2023-04-23T01:28:58;11.60;99.90
26336;DHT22;14047;50.936;4.654;2023-04-23T01:31:29;11.60;99.90
26336;DHT22;14047;50.936;4.654;2023-04-23T01:33:56;11.60;99.90
26336;DHT22;14047;50.936;4.654;2023-04-23T01:36:24;11.70;99.90
26336;DHT22;14047;50.936;4.654;2023-04-23T01:38:51;11.70;99.90
26336;DHT22;14047;50.936;4.654;2023-04-23T01:41:17;11.60;99.90
26336;DHT22;14047;50.936;4.654;2023-04-23T01:43:44;11.60;99.90
26336;DHT22;14047;50.936;4.654;2023-04-23T01:46:11;11.50;99.90
26336;DHT22;14047;50.936;4.654;2023-04-23T01:48:38;11.50;99.90
26336;DHT22;14047;50.936;4.654;2023-04-23T01:51:04;11.60;99.90
26336;DHT22;14047;50.936;4.654;2023-04-23T01:53:30;11.60;99.90
26336;DHT22;14047;50.936;4.654;2023-04-23T01:55:56;11.60;99.90
26336;DHT22;14047;50.936;4.654;2023-04-23T01:58:23;11.70;99.90
26336;DHT22;14047;50.936;4.654;2023-04-23T02:00:49;11.80;99.90
26336;DHT22;14047;50.936;4.654;2023-04-23T02:03:15;11.90;99.90
26336;DHT22;14047;50.936;4.654;2023-04-23T02:05:42;11.90;99.90
26336;DHT22;14047;50.936;4.654;2023-04-23T02:08:08;11.80;99.90
26336;DHT22;14047;50.936;4.654;2023-04-23T02:10:34;11.90;99.90
26336;DHT22;14047;50.936;4.654;2023-04-23T02:13:01;12.00;99.90
26336;DHT22;14047;50.936;4.654;2023-04-23T02:15:28;12.10;99.90
26336;DHT22;14047;50.936;4.654;2023-04-23T02:17:54;12.10;99.90
26336;DHT22;14047;50.936;4.654;2023-04-23T02:20:20;12.10;99.90
26336;DHT22;14047;50.936;4.654;2023-04-23T02:22:48;12.10;99.90
26336;DHT22;14047;50.936;4.654;2023-04-23T02:25:15;12.20;99.90
26336;DHT22;14047;50.936;4.654;2023-04-23T02:27:43;12.20;99.90
26336;DHT22;14047;50.936;4.654;2023-04-23T02:30:10;12.20;99.90
26336;DHT22;14047;50.936;4.654;2023-04-23T02:32:38;12.20;99.90
26336;DHT22;14047;50.936;4.654;2023-04-23T02:35:05;12.20;99.90
26336;DHT22;14047;50.936;4.654;2023-04-23T02:37:32;12.20;99.90
26336;DHT22;14047;50.936;4.654;2023-04-23T02:39:58;12.10;99.90
26336;DHT22;14047;50.936;4.654;2023-04-23T02:42:24;12.00;99.90
26336;DHT22;14047;50.936;4.654;2023-04-23T02:44:50;11.90;99.90
26336;DHT22;14047;50.936;4.654;2023-04-23T02:47:16;11.90;99.90
26336;DHT22;14047;50.936;4.654;2023-04-23T02:49:42;12.00;99.90
26336;DHT22;14047;50.936;4.654;2023-04-23T02:52:09;11.90;99.90
26336;DHT22;14047;50.936;4.654;2023-04-23T02:54:35;11.90;99.90
26336;DHT22;14047;50.936;4.654;2023-04-23T02:57:04;11.90;99.90
26336;DHT22;14047;50.936;4.654;2023-04-23T02:59:31;11.90;99.90
26336;DHT22;14047;50.936;4.654;2023-04-23T03:01:57;11.80;99.90
26336;DHT22;14047;50.936;4.654;2023-04-23T03:04:22;11.80;99.90
26336;DHT22;14047;50.936;4.654;2023-04-23T03:06:49;11.70;99.90
26336;DHT22;14047;50.936;4.654;2023-04-23T03:09:15;11.70;99.90
26336;DHT22;14047;50.936;4.654;2023-04-23T03:11:41;11.60;99.90
26336;DHT22;14047;50.936;4.654;2023-04-23T03:14:09;11.60;99.90
26336;DHT22;14047;50.936;4.654;2023-04-23T03:16:36;11.50;99.90
26336;DHT22;14047;50.936;4.654;2023-04-23T03:19:02;11.50;99.90
26336;DHT22;14047;50.936;4.654;2023-04-23T03:21:28;11.40;99.90
26336;DHT22;14047;50.936;4.654;2023-04-23T03:23:53;11.40;99.90
26336;DHT22;14047;50.936;4.654;2023-04-23T03:26:19;11.30;99.90
26336;DHT22;14047;50.936;4.654;2023-04-23T03:28:45;11.20;99.90
26336;DHT22;14047;50.936;4.654;2023-04-23T03:31:11;11.20;99.90
26336;DHT22;14047;50.936;4.654;2023-04-23T03:33:37;11.20;99.90
26336;DHT22;14047;50.936;4.654;2023-04-23T03:36:03;11.10;99.90
26336;DHT22;14047;50.936;4.654;2023-04-23T03:38:31;11.10;99.90
26336;DHT22;14047;50.936;4.654;2023-04-23T03:40:58;11.10;99.90
26336;DHT22;14047;50.936;4.654;2023-04-23T03:43:24;11.00;99.90
26336;DHT22;14047;50.936;4.654;2023-04-23T03:46:10;11.00;99.90
26336;DHT22;14047;50.936;4.654;2023-04-23T03:48:39;11.00;99.90
26336;DHT22;14047;50.936;4.654;2023-04-23T03:51:10;10.90;99.90
26336;DHT22;14047;50.936;4.654;2023-04-23T03:53:41;10.90;99.90
26336;DHT22;14047;50.936;4.654;2023-04-23T03:56:25;10.90;99.90
26336;DHT22;14047;50.936;4.654;2023-04-23T03:59:04;10.90;99.90
26336;DHT22;14047;50.936;4.654;2023-04-23T04:01:31;10.90;99.90
26336;DHT22;14047;50.936;4.654;2023-04-23T04:03:57;10.80;99.90
26336;DHT22;14047;50.936;4.654;2023-04-23T04:06:23;10.80;99.90
26336;DHT22;14047;50.936;4.654;2023-04-23T04:08:49;10.80;99.90
26336;DHT22;14047;50.936;4.654;2023-04-23T04:11:15;10.70;99.90
26336;DHT22;14047;50.936;4.654;2023-04-23T04:13:41;10.70;99.90
26336;DHT22;14047;50.936;4.654;2023-04-23T04:16:07;10.70;99.90
26336;DHT22;14047;50.936;4.654;2023-04-23T04:18:33;10.70;99.90
26336;DHT22;14047;50.936;4.654;2023-04-23T04:20:59;10.60;99.90
26336;DHT22;14047;50.936;4.654;2023-04-23T04:23:25;10.70;99.90
26336;DHT22;14047;50.936;4.654;2023-04-23T04:25:51;10.60;99.90
26336;DHT22;14047;50.936;4.654;2023-04-23T04:28:21;10.60;99.90
26336;DHT22;14047;50.936;4.654;2023-04-23T04:30:47;10.60;99.90
26336;DHT22;14047;50.936;4.654;2023-04-23T04:33:14;10.70;99.90
26336;DHT22;14047;50.936;4.654;2023-04-23T04:35:41;10.60;99.90
26336;DHT22;14047;50.936;4.654;2023-04-23T04:38:07;10.50;99.90
26336;DHT22;14047;50.936;4.654;2023-04-23T04:40:33;10.30;99.90
26336;DHT22;14047;50.936;4.654;2023-04-23T04:42:59;10.20;99.90
26336;DHT22;14047;50.936;4.654;2023-04-23T04:45:25;10.30;99.90
26336;DHT22;14047;50.936;4.654;2023-04-23T04:47:51;10.40;99.90
26336;DHT22;14047;50.936;4.654;2023-04-23T04:50:17;10.40;99.90
26336;DHT22;14047;50.936;4.654;2023-04-23T04:52:43;10.40;99.90
26336;DHT22;14047;50.936;4.654;2023-04-23T04:55:09;10.40;99.90
26336;DHT22;14047;50.936;4.654;2023-04-23T04:57:35;10.50;99.90
26336;DHT22;14047;50.936;4.654;2023-04-23T05:00:07;10.50;99.90
26336;DHT22;14047;50.936;4.654;2023-04-23T05:02:43;10.50;99.90
26336;DHT22;14047;50.936;4.654;2023-04-23T05:05:09;10.60;99.90
26336;DHT22;14047;50.936;4.654;2023-04-23T05:07:35;10.60;99.90
26336;DHT22;14047;50.936;4.654;2023-04-23T05:10:01;10.70;99.90
26336;DHT22;14047;50.936;4.654;2023-04-23T05:12:28;10.80;99.90
26336;DHT22;14047;50.936;4.654;2023-04-23T05:14:54;10.90;99.90
26336;DHT22;14047;50.936;4.654;2023-04-23T05:17:20;10.90;99.90
26336;DHT22;14047;50.936;4.654;2023-04-23T05:19:46;10.90;99.90
26336;DHT22;14047;50.936;4.654;2023-04-23T05:22:12;11.00;99.90
26336;DHT22;14047;50.936;4.654;2023-04-23T05:24:37;11.10;99.90
26336;DHT22;14047;50.936;4.654;2023-04-23T05:27:03;11.10;99.90
26336;DHT22;14047;50.936;4.654;2023-04-23T05:29:29;11.20;99.90
26336;DHT22;14047;50.936;4.654;2023-04-23T05:31:55;11.20;99.90
26336;DHT22;14047;50.936;4.654;2023-04-23T05:34:21;11.20;99.90
26336;DHT22;14047;50.936;4.654;2023-04-23T05:36:47;11.30;99.90
26336;DHT22;14047;50.936;4.654;2023-04-23T05:39:13;11.30;99.90
26336;DHT22;14047;50.936;4.654;2023-04-23T05:41:39;11.40;99.90
26336;DHT22;14047;50.936;4.654;2023-04-23T05:44:04;11.40;99.90
26336;DHT22;14047;50.936;4.654;2023-04-23T05:46:30;11.50;99.90
26336;DHT22;14047;50.936;4.654;2023-04-23T05:48:56;11.50;99.90
26336;DHT22;14047;50.936;4.654;2023-04-23T05:51:22;11.60;99.90
26336;DHT22;14047;50.936;4.654;2023-04-23T05:53:48;11.60;99.90
26336;DHT22;14047;50.936;4.654;2023-04-23T05:56:14;11.70;99.90
26336;DHT22;14047;50.936;4.654;2023-04-23T05:58:41;11.70;99.90
26336;DHT22;14047;50.936;4.654;2023-04-23T06:01:07;11.90;99.90
26336;DHT22;14047;50.936;4.654;2023-04-23T06:03:33;11.80;99.90
26336;DHT22;14047;50.936;4.654;2023-04-23T06:05:59;11.90;99.90
26336;DHT22;14047;50.936;4.654;2023-04-23T06:08:25;12.00;99.90
26336;DHT22;14047;50.936;4.654;2023-04-23T06:10:51;12.00;99.90
26336;DHT22;14047;50.936;4.654;2023-04-23T06:13:17;12.00;99.90
26336;DHT22;14047;50.936;4.654;2023-04-23T06:15:42;12.10;99.90
26336;DHT22;14047;50.936;4.654;2023-04-23T06:18:08;12.20;99.90
26336;DHT22;14047;50.936;4.654;2023-04-23T06:20:35;12.20;99.90
26336;DHT22;14047;50.936;4.654;2023-04-23T06:23:12;12.30;99.90
26336;DHT22;14047;50.936;4.654;2023-04-23T06:25:38;12.30;99.90
26336;DHT22;14047;50.936;4.654;2023-04-23T06:28:04;12.30;99.90
26336;DHT22;14047;50.936;4.654;2023-04-23T06:30:39;12.40;99.90
26336;DHT22;14047;50.936;4.654;2023-04-23T06:33:07;12.50;99.90
26336;DHT22;14047;50.936;4.654;2023-04-23T06:35:33;12.60;99.90
26336;DHT22;14047;50.936;4.654;2023-04-23T06:37:59;12.60;99.90
26336;DHT22;14047;50.936;4.654;2023-04-23T06:40:25;12.70;99.90
26336;DHT22;14047;50.936;4.654;2023-04-23T06:42:51;12.80;99.90
26336;DHT22;14047;50.936;4.654;2023-04-23T06:45:30;12.90;99.90
26336;DHT22;14047;50.936;4.654;2023-04-23T06:47:57;13.00;99.90
26336;DHT22;14047;50.936;4.654;2023-04-23T06:50:23;13.10;99.90
26336;DHT22;14047;50.936;4.654;2023-04-23T06:52:49;13.20;99.90
26336;DHT22;14047;50.936;4.654;2023-04-23T06:55:17;13.30;99.90
26336;DHT22;14047;50.936;4.654;2023-04-23T06:57:43;13.40;99.90
26336;DHT22;14047;50.936;4.654;2023-04-23T07:00:10;13.40;99.90
26336;DHT22;14047;50.936;4.654;2023-04-23T07:02:38;13.50;99.90
26336;DHT22;14047;50.936;4.654;2023-04-23T07:05:04;13.50;99.90
26336;DHT22;14047;50.936;4.654;2023-04-23T07:07:30;13.60;99.90
26336;DHT22;14047;50.936;4.654;2023-04-23T07:09:56;13.60;99.90
26336;DHT22;14047;50.936;4.654;2023-04-23T07:12:22;13.70;99.90
26336;DHT22;14047;50.936;4.654;2023-04-23T07:14:48;13.80;99.90
26336;DHT22;14047;50.936;4.654;2023-04-23T07:17:14;13.90;99.90
26336;DHT22;14047;50.936;4.654;2023-04-23T07:19:40;13.90;99.90
26336;DHT22;14047;50.936;4.654;2023-04-23T07:22:06;14.00;99.90
26336;DHT22;14047;50.936;4.654;2023-04-23T07:24:32;14.20;99.90
26336;DHT22;14047;50.936;4.654;2023-04-23T07:26:58;14.20;99.90
26336;DHT22;14047;50.936;4.654;2023-04-23T07:29:24;14.30;99.90
26336;DHT22;14047;50.936;4.654;2023-04-23T07:31:50;14.40;99.90
26336;DHT22;14047;50.936;4.654;2023-04-23T07:34:16;14.40;99.90
26336;DHT22;14047;50.936;4.654;2023-04-23T07:36:42;14.50;99.90
26336;DHT22;14047;50.936;4.654;2023-04-23T07:39:08;14.60;99.90
26336;DHT22;14047;50.936;4.654;2023-04-23T07:41:34;14.40;99.90
26336;DHT22;14047;50.936;4.654;2023-04-23T07:44:00;14.40;99.90
26336;DHT22;14047;50.936;4.654;2023-04-23T07:46:26;14.50;99.90
26336;DHT22;14047;50.936;4.654;2023-04-23T07:48:52;14.60;99.90
26336;DHT22;14047;50.936;4.654;2023-04-23T07:51:18;14.80;99.90
26336;DHT22;14047;50.936;4.654;2023-04-23T07:53:44;14.90;99.90
26336;DHT22;14047;50.936;4.654;2023-04-23T07:56:11;15.00;99.90
26336;DHT22;14047;50.936;4.654;2023-04-23T07:58:37;15.10;99.90
26336;DHT22;14047;50.936;4.654;2023-04-23T08:01:03;15.20;99.90
26336;DHT22;14047;50.936;4.654;2023-04-23T08:03:29;15.30;99.90
26336;DHT22;14047;50.936;4.654;2023-04-23T08:05:55;15.30;99.90
26336;DHT22;14047;50.936;4.654;2023-04-23T08:08:22;15.40;99.90
26336;DHT22;14047;50.936;4.654;2023-04-23T08:10:48;15.50;99.90
26336;DHT22;14047;50.936;4.654;2023-04-23T08:13:14;15.60;99.90
26336;DHT22;14047;50.936;4.654;2023-04-23T08:15:39;15.70;99.90
26336;DHT22;14047;50.936;4.654;2023-04-23T08:18:05;15.90;99.90
26336;DHT22;14047;50.936;4.654;2023-04-23T08:20:31;16.00;99.90
26336;DHT22;14047;50.936;4.654;2023-04-23T08:22:57;16.10;99.90
26336;DHT22;14047;50.936;4.654;2023-04-23T08:25:24;16.30;99.90
26336;DHT22;14047;50.936;4.654;2023-04-23T08:27:50;16.40;99.90
26336;DHT22;14047;50.936;4.654;2023-04-23T08:30:16;16.50;99.90
26336;DHT22;14047;50.936;4.654;2023-04-23T08:32:42;16.60;99.90
26336;DHT22;14047;50.936;4.654;2023-04-23T08:35:09;16.70;99.90
26336;DHT22;14047;50.936;4.654;2023-04-23T08:37:35;16.80;99.90
26336;DHT22;14047;50.936;4.654;2023-04-23T08:40:01;16.90;99.90
26336;DHT22;14047;50.936;4.654;2023-04-23T08:42:41;17.00;99.90
26336;DHT22;14047;50.936;4.654;2023-04-23T08:45:11;17.20;99.90
26336;DHT22;14047;50.936;4.654;2023-04-23T08:47:41;17.50;99.90
26336;DHT22;14047;50.936;4.654;2023-04-23T08:50:13;17.50;99.90
26336;DHT22;14047;50.936;4.654;2023-04-23T08:52:46;17.60;99.90
26336;DHT22;14047;50.936;4.654;2023-04-23T08:55:13;17.50;99.90
26336;DHT22;14047;50.936;4.654;2023-04-23T08:57:41;17.50;99.90
26336;DHT22;14047;50.936;4.654;2023-04-23T09:00:11;17.60;99.90
26336;DHT22;14047;50.936;4.654;2023-04-23T09:02:41;17.70;99.90
26336;DHT22;14047;50.936;4.654;2023-04-23T09:05:08;17.80;99.90
26336;DHT22;14047;50.936;4.654;2023-04-23T09:07:35;17.90;99.90
26336;DHT22;14047;50.936;4.654;2023-04-23T09:10:05;17.80;99.90
26336;DHT22;14047;50.936;4.654;2023-04-23T09:12:34;17.80;99.90
26336;DHT22;14047;50.936;4.654;2023-04-23T09:15:02;17.90;99.90
26336;DHT22;14047;50.936;4.654;2023-04-23T09:17:37;18.20;99.90
26336;DHT22;14047;50.936;4.654;2023-04-23T09:20:04;18.30;99.90
26336;DHT22;14047;50.936;4.654;2023-04-23T09:25:08;18.60;99.90
26336;DHT22;14047;50.936;4.654;2023-04-23T09:27:34;18.70;99.90
26336;DHT22;14047;50.936;4.654;2023-04-23T09:30:05;18.80;99.90
26336;DHT22;14047;50.936;4.654;2023-04-23T09:32:37;18.80;99.90
26336;DHT22;14047;50.936;4.654;2023-04-23T09:35:05;18.80;99.90
26336;DHT22;14047;50.936;4.654;2023-04-23T09:37:31;18.80;99.90
26336;DHT22;14047;50.936;4.654;2023-04-23T09:39:58;18.90;99.90
26336;DHT22;14047;50.936;4.654;2023-04-23T09:42:28;19.10;99.90
26336;DHT22;14047;50.936;4.654;2023-04-23T09:44:59;19.00;99.90
26336;DHT22;14047;50.936;4.654;2023-04-23T09:47:25;19.10;99.90
26336;DHT22;14047;50.936;4.654;2023-04-23T09:49:52;19.40;99.90
26336;DHT22;14047;50.936;4.654;2023-04-23T09:52:18;19.70;99.90
26336;DHT22;14047;50.936;4.654;2023-04-23T09:54:45;19.70;99.90
26336;DHT22;14047;50.936;4.654;2023-04-23T09:57:11;19.50;99.90
26336;DHT22;14047;50.936;4.654;2023-04-23T09:59:37;19.30;99.90
26336;DHT22;14047;50.936;4.654;2023-04-23T10:02:05;19.60;99.90
26336;DHT22;14047;50.936;4.654;2023-04-23T10:04:32;19.70;99.90
26336;DHT22;14047;50.936;4.654;2023-04-23T10:07:00;19.80;99.90
26336;DHT22;14047;50.936;4.654;2023-04-23T10:09:27;20.10;99.90
26336;DHT22;14047;50.936;4.654;2023-04-23T10:11:56;20.20;99.90
26336;DHT22;14047;50.936;4.654;2023-04-23T10:14:23;20.20;99.90
26336;DHT22;14047;50.936;4.654;2023-04-23T10:16:51;20.30;99.90
26336;DHT22;14047;50.936;4.654;2023-04-23T10:19:22;20.30;99.90
26336;DHT22;14047;50.936;4.654;2023-04-23T10:21:52;20.20;99.90
26336;DHT22;14047;50.936;4.654;2023-04-23T10:24:25;19.90;99.90
26336;DHT22;14047;50.936;4.654;2023-04-23T10:26:57;20.10;99.90
26336;DHT22;14047;50.936;4.654;2023-04-23T10:29:30;19.80;99.90
26336;DHT22;14047;50.936;4.654;2023-04-23T10:31:58;19.80;99.90
26336;DHT22;14047;50.936;4.654;2023-04-23T10:34:26;19.80;99.90
26336;DHT22;14047;50.936;4.654;2023-04-23T10:36:53;19.80;99.90
26336;DHT22;14047;50.936;4.654;2023-04-23T10:39:21;19.60;99.90
26336;DHT22;14047;50.936;4.654;2023-04-23T10:41:47;19.60;99.90
26336;DHT22;14047;50.936;4.654;2023-04-23T10:44:13;19.70;99.90
26336;DHT22;14047;50.936;4.654;2023-04-23T10:46:51;20.00;99.90
26336;DHT22;14047;50.936;4.654;2023-04-23T10:49:17;19.90;99.90
26336;DHT22;14047;50.936;4.654;2023-04-23T10:51:46;19.70;99.90
26336;DHT22;14047;50.936;4.654;2023-04-23T10:54:17;19.90;99.90
26336;DHT22;14047;50.936;4.654;2023-04-23T10:56:44;20.20;99.90
26336;DHT22;14047;50.936;4.654;2023-04-23T10:59:20;20.30;99.90
26336;DHT22;14047;50.936;4.654;2023-04-23T11:01:48;20.50;99.90
26336;DHT22;14047;50.936;4.654;2023-04-23T11:04:22;20.20;99.90
26336;DHT22;14047;50.936;4.654;2023-04-23T11:09:30;20.40;99.90
26336;DHT22;14047;50.936;4.654;2023-04-23T11:11:58;20.10;99.90
26336;DHT22;14047;50.936;4.654;2023-04-23T11:17:15;20.20;99.90
26336;DHT22;14047;50.936;4.654;2023-04-23T11:22:40;19.90;99.90
26336;DHT22;14047;50.936;4.654;2023-04-23T11:25:21;20.00;99.90
26336;DHT22;14047;50.936;4.654;2023-04-23T11:27:49;20.00;99.90
26336;DHT22;14047;50.936;4.654;2023-04-23T11:30:20;20.30;99.90
26336;DHT22;14047;50.936;4.654;2023-04-23T11:32:49;20.50;99.90
26336;DHT22;14047;50.936;4.654;2023-04-23T11:35:18;20.70;99.90
26336;DHT22;14047;50.936;4.654;2023-04-23T11:37:46;20.50;99.90
26336;DHT22;14047;50.936;4.654;2023-04-23T11:40:17;20.80;99.90
26336;DHT22;14047;50.936;4.654;2023-04-23T11:42:45;20.40;99.90
26336;DHT22;14047;50.936;4.654;2023-04-23T11:45:25;19.80;99.90
26336;DHT22;14047;50.936;4.654;2023-04-23T11:47:54;20.20;99.90
26336;DHT22;14047;50.936;4.654;2023-04-23T11:50:30;20.50;99.90
26336;DHT22;14047;50.936;4.654;2023-04-23T11:53:07;20.60;99.90
26336;DHT22;14047;50.936;4.654;2023-04-23T11:55:36;21.10;99.90
26336;DHT22;14047;50.936;4.654;2023-04-23T11:58:03;21.30;99.90
26336;DHT22;14047;50.936;4.654;2023-04-23T12:00:29;21.40;99.90
26336;DHT22;14047;50.936;4.654;2023-04-23T12:02:59;21.30;99.90
26336;DHT22;14047;50.936;4.654;2023-04-23T12:08:14;21.60;99.90
26336;DHT22;14047;50.936;4.654;2023-04-23T12:10:49;21.90;99.90
26336;DHT22;14047;50.936;4.654;2023-04-23T12:13:29;22.00;99.90
26336;DHT22;14047;50.936;4.654;2023-04-23T12:16:01;22.00;99.90
26336;DHT22;14047;50.936;4.654;2023-04-23T12:20:55;21.80;99.90
26336;DHT22;14047;50.936;4.654;2023-04-23T12:23:26;21.20;99.90
26336;DHT22;14047;50.936;4.654;2023-04-23T12:25:53;20.90;99.90
26336;DHT22;14047;50.936;4.654;2023-04-23T12:28:23;20.50;99.90
26336;DHT22;14047;50.936;4.654;2023-04-23T12:30:49;20.00;99.90
26336;DHT22;14047;50.936;4.654;2023-04-23T12:33:15;19.50;99.90
26336;DHT22;14047;50.936;4.654;2023-04-23T12:35:44;18.70;99.90
26336;DHT22;14047;50.936;4.654;2023-04-23T12:38:25;17.70;99.90
26336;DHT22;14047;50.936;4.654;2023-04-23T12:40:52;16.50;99.90
26336;DHT22;14047;50.936;4.654;2023-04-23T12:43:18;16.00;99.90
26336;DHT22;14047;50.936;4.654;2023-04-23T12:45:44;15.90;99.90
26336;DHT22;14047;50.936;4.654;2023-04-23T12:48:11;15.80;99.90
26336;DHT22;14047;50.936;4.654;2023-04-23T12:50:38;15.60;99.90
26336;DHT22;14047;50.936;4.654;2023-04-23T12:53:04;15.80;99.90
26336;DHT22;14047;50.936;4.654;2023-04-23T12:55:30;15.70;99.90
26336;DHT22;14047;50.936;4.654;2023-04-23T12:57:57;15.70;99.90
26336;DHT22;14047;50.936;4.654;2023-04-23T13:00:23;15.80;99.90
26336;DHT22;14047;50.936;4.654;2023-04-23T13:02:48;16.00;99.90
26336;DHT22;14047;50.936;4.654;2023-04-23T13:05:15;16.30;99.90
26336;DHT22;14047;50.936;4.654;2023-04-23T13:07:41;16.20;99.90
26336;DHT22;14047;50.936;4.654;2023-04-23T13:10:09;16.30;99.90
26336;DHT22;14047;50.936;4.654;2023-04-23T13:12:35;16.50;99.90
26336;DHT22;14047;50.936;4.654;2023-04-23T13:15:01;16.60;99.90
26336;DHT22;14047;50.936;4.654;2023-04-23T13:17:27;16.70;99.90
26336;DHT22;14047;50.936;4.654;2023-04-23T13:19:54;16.60;99.90
26336;DHT22;14047;50.936;4.654;2023-04-23T13:22:21;16.70;99.90
26336;DHT22;14047;50.936;4.654;2023-04-23T13:24:47;16.80;99.90
26336;DHT22;14047;50.936;4.654;2023-04-23T13:27:13;17.00;99.90
26336;DHT22;14047;50.936;4.654;2023-04-23T13:29:39;17.00;99.90
26336;DHT22;14047;50.936;4.654;2023-04-23T13:32:05;17.10;99.90
26336;DHT22;14047;50.936;4.654;2023-04-23T13:34:31;17.30;99.90
26336;DHT22;14047;50.936;4.654;2023-04-23T13:36:58;17.40;99.90
26336;DHT22;14047;50.936;4.654;2023-04-23T13:39:25;17.60;99.90
26336;DHT22;14047;50.936;4.654;2023-04-23T13:41:51;17.40;99.90
26336;DHT22;14047;50.936;4.654;2023-04-23T13:44:17;17.40;99.90
26336;DHT22;14047;50.936;4.654;2023-04-23T13:46:43;17.40;99.90
26336;DHT22;14047;50.936;4.654;2023-04-23T13:49:09;17.40;99.90
26336;DHT22;14047;50.936;4.654;2023-04-23T13:51:35;17.50;99.90
26336;DHT22;14047;50.936;4.654;2023-04-23T13:54:01;17.40;99.90
26336;DHT22;14047;50.936;4.654;2023-04-23T13:56:28;17.50;99.90
26336;DHT22;14047;50.936;4.654;2023-04-23T13:58:55;17.40;99.90
26336;DHT22;14047;50.936;4.654;2023-04-23T14:01:27;17.40;99.90
26336;DHT22;14047;50.936;4.654;2023-04-23T14:03:53;17.00;99.90
26336;DHT22;14047;50.936;4.654;2023-04-23T14:06:19;16.90;99.90
26336;DHT22;14047;50.936;4.654;2023-04-23T14:08:45;16.90;99.90
26336;DHT22;14047;50.936;4.654;2023-04-23T14:11:11;16.90;99.90
26336;DHT22;14047;50.936;4.654;2023-04-23T14:13:37;16.60;99.90
26336;DHT22;14047;50.936;4.654;2023-04-23T14:16:02;16.50;99.90
26336;DHT22;14047;50.936;4.654;2023-04-23T14:18:28;16.40;99.90
26336;DHT22;14047;50.936;4.654;2023-04-23T14:20:54;16.20;99.90
26336;DHT22;14047;50.936;4.654;2023-04-23T14:25:57;16.20;99.90
26336;DHT22;14047;50.936;4.654;2023-04-23T14:28:27;16.30;99.90
26336;DHT22;14047;50.936;4.654;2023-04-23T14:30:55;16.30;99.90
26336;DHT22;14047;50.936;4.654;2023-04-23T14:33:22;16.40;99.90
26336;DHT22;14047;50.936;4.654;2023-04-23T14:35:48;16.40;99.90
26336;DHT22;14047;50.936;4.654;2023-04-23T14:38:14;16.40;99.90
26336;DHT22;14047;50.936;4.654;2023-04-23T14:40:40;16.40;99.90
26336;DHT22;14047;50.936;4.654;2023-04-23T14:43:06;16.50;99.90
26336;DHT22;14047;50.936;4.654;2023-04-23T14:45:32;16.60;99.90
26336;DHT22;14047;50.936;4.654;2023-04-23T14:47:58;16.90;99.90
26336;DHT22;14047;50.936;4.654;2023-04-23T14:50:24;17.40;99.90
26336;DHT22;14047;50.936;4.654;2023-04-23T14:52:53;17.80;99.90
26336;DHT22;14047;50.936;4.654;2023-04-23T14:55:20;18.10;99.90
26336;DHT22;14047;50.936;4.654;2023-04-23T14:57:46;18.10;99.90
26336;DHT22;14047;50.936;4.654;2023-04-23T15:00:13;18.20;99.90
26336;DHT22;14047;50.936;4.654;2023-04-23T15:02:40;18.20;99.90
26336;DHT22;14047;50.936;4.654;2023-04-23T15:05:07;18.00;99.90
26336;DHT22;14047;50.936;4.654;2023-04-23T15:07:35;17.60;99.90
26336;DHT22;14047;50.936;4.654;2023-04-23T15:10:01;17.70;99.90
26336;DHT22;14047;50.936;4.654;2023-04-23T15:15:02;17.50;99.90
26336;DHT22;14047;50.936;4.654;2023-04-23T15:17:29;17.70;99.90
26336;DHT22;14047;50.936;4.654;2023-04-23T15:19:55;17.80;99.90
26336;DHT22;14047;50.936;4.654;2023-04-23T15:22:24;17.90;99.90
26336;DHT22;14047;50.936;4.654;2023-04-23T15:24:51;17.90;99.90
26336;DHT22;14047;50.936;4.654;2023-04-23T15:27:17;17.90;99.90
26336;DHT22;14047;50.936;4.654;2023-04-23T15:29:42;18.20;99.90
26336;DHT22;14047;50.936;4.654;2023-04-23T15:32:08;18.20;99.90
26336;DHT22;14047;50.936;4.654;2023-04-23T15:34:35;18.30;99.90
26336;DHT22;14047;50.936;4.654;2023-04-23T15:37:01;18.10;99.90
26336;DHT22;14047;50.936;4.654;2023-04-23T15:39:27;18.00;99.90
26336;DHT22;14047;50.936;4.654;2023-04-23T15:41:55;18.10;99.90
26336;DHT22;14047;50.936;4.654;2023-04-23T15:44:21;17.80;99.90
26336;DHT22;14047;50.936;4.654;2023-04-23T15:46:48;17.90;99.90
26336;DHT22;14047;50.936;4.654;2023-04-23T15:49:14;17.80;99.90
26336;DHT22;14047;50.936;4.654;2023-04-23T15:51:40;17.60;99.90